CYQI

Yarmouth Airport

Yarmouth, , Canada
METAR CYQI 180600Z 16008KT 15SM FEW025 OVC070 M02/M06 A3022 RMK SC1AS8 SC TR SLP236
Observed Flight Rules
Feb-18 @ 06:00 UTC (an hour ago) Visual Flight Rules
Wind Visibility Clouds
160° at 8 knots 15 miles
  • Few at 2,500' AGL
  • Overcast at 7,000' AGL
Temperatures Readings
Current -2°C / 28°F
Dewpoint -6°C / 21°F
Humidity 74%
Altimeter 30.22" Hg
Pressure 1023.6 hPa
Elevation 43
METAR CYQI 180600Z 16008KT 15SM FEW025 OVC070 M02/M06 A3022 RMK SC1AS8 SC TR SLP236
Observed Flight Rules
Feb-18 @ 06:00 UTC
(an hour ago)
VFR
Wind Visibility
160° at 8 knots 15 miles
Clouds
  • Few at 2,500' AGL
  • Overcast at 7,000' AGL
Temperature Dewpoint
-2°C / 28°F -6°C / 21°F
Humidity Altimeter Pressure
74% 30.22" Hg 1023.6 hPa